Time,TemperatureF,DewpointF,PressureIn,WindDirection,WindDirectionDegrees,WindSpeedMPH,WindSpeedGustMPH,Humidity,HourlyPrecipIn,Conditions,Clouds,dailyrainin,SoftwareType,DateUTC
2013-08-07 00:01:00,61.5,61.0,30.04,ENE,73,0.0,0.0,98,0.00,,,0.00,meteohub,2013-08-07 04:01:00,
2013-08-07 00:02:00,61.5,61.0,30.04,ENE,73,0.0,0.0,98,0.00,,,0.00,meteohub,2013-08-07 04:02:00,
2013-08-07 00:03:00,61.5,61.0,30.04,ENE,73,0.0,0.0,98,0.00,,,0.00,meteohub,2013-08-07 04:03:00,
2013-08-07 00:04:00,61.5,61.0,30.04,ENE,73,0.0,0.0,98,0.00,,,0.00,meteohub,2013-08-07 04:04:00,
2013-08-07 00:07:00,61.5,61.0,30.04,ENE,73,0.0,0.0,98,0.00,,,0.00,meteohub,2013-08-07 04:07:00,
2013-08-07 00:12:00,61.5,61.0,30.04,ENE,73,0.0,0.0,98,0.00,,,0.00,meteohub,2013-08-07 04:12:00,
2013-08-07 00:17:00,61.5,61.0,30.04,ENE,74,0.0,0.0,98,0.00,,,0.00,meteohub,2013-08-07 04:17:00,
2013-08-07 00:22:00,61.5,61.0,30.04,ENE,73,0.0,0.0,98,0.00,,,0.00,meteohub,2013-08-07 04:22:00,
2013-08-07 00:27:00,61.5,61.0,30.04,ENE,73,0.0,0.0,98,0.00,,,0.00,meteohub,2013-08-07 04:27:00,
2013-08-07 00:32:00,61.5,61.0,30.04,ENE,73,0.0,0.0,98,0.00,,,0.00,meteohub,2013-08-07 04:32:00,
2013-08-07 00:37:00,61.5,61.0,30.04,ENE,74,0.0,0.0,98,0.00,,,0.00,meteohub,2013-08-07 04:37:00,
2013-08-07 00:43:00,61.5,61.2,30.04,ENE,73,0.0,0.0,99,0.00,,,0.00,meteohub,2013-08-07 04:43:00,
2013-08-07 00:48:00,61.7,61.3,30.04,ENE,73,0.0,0.0,99,0.00,,,0.00,meteohub,2013-08-07 04:48:00,
2013-08-07 00:53:00,61.5,61.2,30.04,ENE,73,0.0,0.0,99,0.00,,,0.00,meteohub,2013-08-07 04:53:00,
2013-08-07 00:58:00,61.7,61.3,30.04,ENE,73,0.0,0.0,99,0.00,,,0.00,meteohub,2013-08-07 04:58:00,
2013-08-07 01:03:00,61.7,61.3,30.05,ENE,73,0.0,0.0,99,0.00,,,0.00,meteohub,2013-08-07 05:03:00,
2013-08-07 01:08:00,61.7,61.3,30.04,ENE,73,0.0,0.0,99,0.00,,,0.00,meteohub,2013-08-07 05:08:00,
2013-08-07 01:13:00,61.9,61.5,30.04,ENE,73,0.0,0.0,99,0.00,,,0.00,meteohub,2013-08-07 05:13:00,
2013-08-07 01:18:00,61.9,61.5,30.04,ENE,73,0.0,0.0,99,0.00,,,0.00,meteohub,2013-08-07 05:18:00,
2013-08-07 01:23:00,61.9,61.5,30.04,ENE,74,0.0,0.0,99,0.00,,,0.00,meteohub,2013-08-07 05:23:00,
2013-08-07 01:28:00,62.1,61.7,30.04,ENE,73,0.0,0.0,99,0.00,,,0.00,meteohub,2013-08-07 05:28:00,
2013-08-07 01:33:00,62.2,61.9,30.04,ENE,74,0.0,0.0,99,0.00,,,0.00,meteohub,2013-08-07 05:33:00,
2013-08-07 01:38:00,62.2,61.9,30.04,ENE,74,0.0,0.0,99,0.00,,,0.00,meteohub,2013-08-07 05:38:00,
2013-08-07 01:43:00,62.4,62.1,30.04,ENE,73,0.0,0.0,99,0.00,,,0.00,meteohub,2013-08-07 05:43:00,
2013-08-07 01:48:00,62.4,62.1,30.04,ENE,73,0.0,0.0,99,0.00,,,0.00,meteohub,2013-08-07 05:48:00,
2013-08-07 01:53:00,62.2,61.9,30.04,ENE,73,0.0,0.0,99,0.00,,,0.00,meteohub,2013-08-07 05:53:00,
2013-08-07 01:59:00,62.4,62.1,30.04,ENE,73,0.0,0.0,99,0.00,,,0.00,meteohub,2013-08-07 05:59:00,
2013-08-07 02:04:00,62.4,62.1,30.04,ENE,74,0.0,0.0,99,0.00,,,0.00,meteohub,2013-08-07 06:04:00,
2013-08-07 02:09:00,62.4,62.1,30.04,ENE,73,0.0,0.0,99,0.00,,,0.00,meteohub,2013-08-07 06:09:00,
2013-08-07 02:14:00,62.4,62.1,30.04,ENE,73,0.0,0.0,99,0.00,,,0.00,meteohub,2013-08-07 06:14:00,
2013-08-07 02:19:00,62.4,62.1,30.04,ENE,73,0.0,0.0,99,0.00,,,0.00,meteohub,2013-08-07 06:19:00,
2013-08-07 02:24:00,62.6,62.2,30.04,ENE,73,0.0,0.0,99,0.00,,,0.00,meteohub,2013-08-07 06:24:00,
2013-08-07 02:29:00,62.6,62.2,30.04,ENE,73,0.0,0.0,99,0.00,,,0.00,meteohub,2013-08-07 06:29:00,
2013-08-07 02:34:00,62.6,62.2,30.04,ENE,73,0.0,0.0,99,0.00,,,0.00,meteohub,2013-08-07 06:34:00,
2013-08-07 02:39:00,62.6,62.2,30.04,ENE,73,0.0,0.0,99,0.00,,,0.00,meteohub,2013-08-07 06:39:00,
2013-08-07 02:44:00,62.8,62.4,30.04,ENE,73,0.0,0.0,99,0.00,,,0.00,meteohub,2013-08-07 06:44:00,
2013-08-07 02:49:00,62.8,62.4,30.04,ENE,73,0.0,0.0,99,0.00,,,0.00,meteohub,2013-08-07 06:49:00,
2013-08-07 02:54:00,62.8,62.4,30.04,ENE,74,0.0,0.0,99,0.00,,,0.00,meteohub,2013-08-07 06:54:00,
2013-08-07 02:59:00,62.8,62.4,30.04,ENE,73,0.0,0.0,99,0.00,,,0.00,meteohub,2013-08-07 06:59:00,
2013-08-07 03:04:00,62.8,62.4,30.04,ENE,73,0.0,0.0,99,0.00,,,0.00,meteohub,2013-08-07 07:04:00,
2013-08-07 03:09:00,62.8,62.4,30.04,ENE,74,0.0,0.0,99,0.00,,,0.00,meteohub,2013-08-07 07:09:00,
2013-08-07 03:14:00,62.8,62.4,30.04,ENE,73,0.0,0.0,99,0.00,,,0.00,meteohub,2013-08-07 07:14:00,
2013-08-07 03:19:00,62.8,62.4,30.04,ENE,73,0.0,0.0,99,0.00,,,0.00,meteohub,2013-08-07 07:19:00,
2013-08-07 03:25:00,62.8,62.4,30.04,ENE,73,0.0,0.0,99,0.00,,,0.00,meteohub,2013-08-07 07:25:00,
2013-08-07 03:30:00,62.8,62.4,30.04,ENE,73,0.0,0.0,99,0.00,,,0.00,meteohub,2013-08-07 07:30:00,
2013-08-07 03:35:00,63.0,62.6,30.04,ENE,73,0.0,0.0,99,0.00,,,0.00,meteohub,2013-08-07 07:35:00,
2013-08-07 03:40:00,63.0,62.6,30.04,ENE,74,0.0,0.0,99,0.00,,,0.00,meteohub,2013-08-07 07:40:00,
2013-08-07 03:45:00,63.0,62.6,30.04,ENE,73,0.0,0.0,99,0.00,,,0.00,meteohub,2013-08-07 07:45:00,
2013-08-07 03:50:00,63.0,62.6,30.04,ENE,73,0.0,0.0,99,0.00,,,0.00,meteohub,2013-08-07 07:50:00,
2013-08-07 03:55:00,63.1,62.8,30.04,ENE,74,0.0,0.0,99,0.00,,,0.00,meteohub,2013-08-07 07:55:00,
2013-08-07 04:00:00,63.1,62.8,30.04,ENE,73,0.0,0.0,99,0.00,,,0.00,meteohub,2013-08-07 08:00:00,
2013-08-07 04:05:00,63.1,62.8,30.05,ENE,73,0.0,0.0,99,0.00,,,0.00,meteohub,2013-08-07 08:05:00,
2013-08-07 04:10:00,63.1,62.8,30.05,ENE,73,0.0,0.0,99,0.00,,,0.00,meteohub,2013-08-07 08:10:00,
2013-08-07 04:15:00,63.1,62.8,30.05,ENE,73,0.0,0.0,99,0.00,,,0.00,meteohub,2013-08-07 08:15:00,
2013-08-07 04:20:00,63.3,63.0,30.04,ENE,73,0.0,0.0,99,0.00,,,0.00,meteohub,2013-08-07 08:20:00,
2013-08-07 04:25:00,63.3,63.0,30.05,ENE,73,0.0,0.0,99,0.00,,,0.00,meteohub,2013-08-07 08:25:00,
2013-08-07 04:30:00,63.3,63.0,30.05,ENE,73,0.0,0.0,99,0.00,,,0.00,meteohub,2013-08-07 08:30:00,
2013-08-07 04:35:00,63.3,63.0,30.05,ENE,73,0.0,0.0,99,0.00,,,0.00,meteohub,2013-08-07 08:35:00,
2013-08-07 04:40:00,63.3,63.0,30.05,ENE,73,0.0,0.0,99,0.00,,,0.00,meteohub,2013-08-07 08:40:00,
2013-08-07 04:46:00,63.3,63.0,30.04,ENE,73,0.0,0.0,99,0.00,,,0.00,meteohub,2013-08-07 08:46:00,
2013-08-07 04:51:00,63.5,63.1,30.04,ENE,73,0.0,0.0,99,0.00,,,0.00,meteohub,2013-08-07 08:51:00,
2013-08-07 04:56:00,63.5,63.1,30.04,ENE,73,0.0,0.0,99,0.00,,,0.00,meteohub,2013-08-07 08:56:00,
2013-08-07 05:01:00,63.5,63.1,30.05,ENE,73,0.0,0.0,99,0.00,,,0.00,meteohub,2013-08-07 09:01:00,
2013-08-07 05:06:00,63.7,63.3,30.04,ENE,73,0.0,0.0,99,0.00,,,0.00,meteohub,2013-08-07 09:06:00,
2013-08-07 05:11:00,63.7,63.3,30.04,ENE,73,0.0,0.0,99,0.00,,,0.00,meteohub,2013-08-07 09:11:00,
2013-08-07 05:16:00,63.7,63.3,30.05,ENE,73,0.0,0.0,99,0.00,,,0.00,meteohub,2013-08-07 09:16:00,
2013-08-07 05:21:00,63.7,63.3,30.04,ENE,73,0.0,0.0,99,0.00,,,0.00,meteohub,2013-08-07 09:21:00,
2013-08-07 05:26:00,63.9,63.5,30.04,ENE,73,0.0,0.0,99,0.00,,,0.00,meteohub,2013-08-07 09:26:00,
2013-08-07 05:31:00,63.9,63.5,30.05,ENE,73,0.0,0.0,99,0.00,,,0.00,meteohub,2013-08-07 09:31:00,
2013-08-07 05:36:00,63.7,63.3,30.05,ENE,73,0.0,0.0,99,0.00,,,0.00,meteohub,2013-08-07 09:36:00,
2013-08-07 05:41:00,63.9,63.5,30.05,ENE,73,0.0,0.0,99,0.00,,,0.00,meteohub,2013-08-07 09:41:00,
2013-08-07 05:46:00,63.9,63.5,30.05,ENE,73,0.0,0.0,99,0.00,,,0.00,meteohub,2013-08-07 09:46:00,
2013-08-07 05:51:00,63.9,63.5,30.05,ENE,73,0.0,0.0,99,0.00,,,0.00,meteohub,2013-08-07 09:51:00,
2013-08-07 05:56:00,63.9,63.5,30.05,ENE,73,0.0,0.0,99,0.00,,,0.00,meteohub,2013-08-07 09:56:00,
2013-08-07 06:02:00,63.9,63.5,30.05,ENE,73,0.0,0.0,99,0.00,,,0.00,meteohub,2013-08-07 10:02:00,
2013-08-07 06:07:00,63.9,63.9,30.05,ENE,73,0.0,0.0,100,0.00,,,0.00,meteohub,2013-08-07 10:07:00,
2013-08-07 06:12:00,63.9,63.5,30.05,ENE,73,0.0,0.0,99,0.00,,,0.00,meteohub,2013-08-07 10:12:00,
2013-08-07 06:17:00,63.9,63.5,30.05,ENE,74,0.0,0.0,99,0.00,,,0.00,meteohub,2013-08-07 10:17:00,
2013-08-07 06:22:00,64.0,63.7,30.05,ENE,73,0.0,0.0,99,0.00,,,0.00,meteohub,2013-08-07 10:22:00,
2013-08-07 06:27:00,64.0,63.7,30.05,ENE,74,0.0,0.0,99,0.00,,,0.00,meteohub,2013-08-07 10:27:00,
2013-08-07 06:32:00,64.0,63.7,30.05,ENE,73,0.0,0.0,99,0.00,,,0.00,meteohub,2013-08-07 10:32:00,
2013-08-07 06:37:00,64.0,64.0,30.05,ENE,74,0.0,0.0,100,0.00,,,0.00,meteohub,2013-08-07 10:37:00,
2013-08-07 06:42:00,64.0,64.0,30.05,ENE,73,0.0,0.0,100,0.00,,,0.00,meteohub,2013-08-07 10:42:00,
2013-08-07 06:47:00,64.2,64.2,30.04,ENE,73,0.0,0.0,100,0.00,,,0.00,meteohub,2013-08-07 10:47:00,
2013-08-07 06:52:00,64.2,64.2,30.04,ENE,74,0.0,0.0,100,0.00,,,0.00,meteohub,2013-08-07 10:52:00,
2013-08-07 06:57:00,64.4,64.4,30.04,East,82,0.0,0.0,100,0.00,,,0.00,meteohub,2013-08-07 10:57:00,
2013-08-07 07:02:00,64.6,64.6,30.04,NE,44,1.0,5.0,100,0.00,,,0.00,meteohub,2013-08-07 11:02:00,
2013-08-07 07:07:00,64.6,64.6,30.05,NE,54,1.0,5.0,100,0.00,,,0.00,meteohub,2013-08-07 11:07:00,
2013-08-07 07:12:00,64.8,64.8,30.05,ENE,64,0.0,5.0,100,0.00,,,0.00,meteohub,2013-08-07 11:12:00,
2013-08-07 07:17:00,64.9,64.9,30.05,ESE,114,0.0,3.0,100,0.00,,,0.00,meteohub,2013-08-07 11:17:00,
2013-08-07 07:22:00,64.9,64.9,30.05,ENE,78,1.0,3.0,100,0.00,,,0.00,meteohub,2013-08-07 11:22:00,
2013-08-07 07:27:00,64.9,64.9,30.05,ENE,78,0.0,2.0,100,0.00,,,0.00,meteohub,2013-08-07 11:27:00,
2013-08-07 07:32:00,65.1,64.8,30.05,ENE,72,3.0,3.0,99,0.00,,,0.00,meteohub,2013-08-07 11:32:00,
2013-08-07 07:37:00,65.5,65.1,30.05,ENE,71,2.0,3.0,99,0.00,,,0.00,meteohub,2013-08-07 11:37:00,
2013-08-07 07:42:00,65.7,65.3,30.05,ENE,69,1.0,4.0,99,0.00,,,0.00,meteohub,2013-08-07 11:42:00,
2013-08-07 07:47:00,65.8,65.5,30.05,ENE,60,2.0,4.0,99,0.00,,,0.00,meteohub,2013-08-07 11:47:00,
2013-08-07 07:52:00,66.0,65.7,30.05,NE,49,0.0,4.0,99,0.00,,,0.00,meteohub,2013-08-07 11:52:00,
2013-08-07 07:57:00,66.4,66.0,30.05,NE,51,2.0,4.0,99,0.00,,,0.00,meteohub,2013-08-07 11:57:00,
2013-08-07 08:03:00,66.7,66.4,30.05,SE,125,1.0,3.0,99,0.00,,,0.00,meteohub,2013-08-07 12:03:00,
2013-08-07 08:08:00,66.7,66.2,30.05,East,101,4.0,4.0,98,0.00,,,0.00,meteohub,2013-08-07 12:08:00,
2013-08-07 08:13:00,66.9,66.4,30.05,ENE,78,0.0,4.0,98,0.00,,,0.00,meteohub,2013-08-07 12:13:00,
2013-08-07 08:18:00,66.9,66.4,30.05,NE,51,1.0,4.0,98,0.00,,,0.00,meteohub,2013-08-07 12:18:00,
2013-08-07 08:23:00,66.9,66.4,30.05,East,97,1.0,4.0,98,0.00,,,0.00,meteohub,2013-08-07 12:23:00,
2013-08-07 08:28:00,67.3,66.7,30.04,East,82,1.0,3.0,98,0.00,,,0.00,meteohub,2013-08-07 12:28:00,
2013-08-07 08:33:00,67.3,66.4,30.04,NE,52,3.0,3.0,97,0.00,,,0.00,meteohub,2013-08-07 12:33:00,
2013-08-07 08:38:00,67.5,66.6,30.04,ENE,71,1.0,5.0,97,0.00,,,0.00,meteohub,2013-08-07 12:38:00,
2013-08-07 08:43:00,67.5,66.6,30.04,ENE,69,2.0,5.0,97,0.00,,,0.00,meteohub,2013-08-07 12:43:00,
2013-08-07 08:48:00,67.6,66.4,30.04,ENE,75,1.0,5.0,96,0.00,,,0.00,meteohub,2013-08-07 12:48:00,
2013-08-07 08:53:00,67.8,66.6,30.04,ENE,66,1.0,4.0,96,0.00,,,0.00,meteohub,2013-08-07 12:53:00,
2013-08-07 08:58:00,68.0,66.7,30.04,NE,54,2.0,4.0,96,0.00,,,0.00,meteohub,2013-08-07 12:58:00,
2013-08-07 09:03:00,68.2,66.9,30.04,NE,53,3.0,4.0,96,0.00,,,0.00,meteohub,2013-08-07 13:03:00,
2013-08-07 09:08:00,68.4,67.1,30.04,ENE,61,2.0,3.0,96,0.00,,,0.00,meteohub,2013-08-07 13:08:00,
2013-08-07 09:13:00,68.5,67.1,30.04,ENE,78,1.0,5.0,95,0.00,,,0.00,meteohub,2013-08-07 13:13:00,
2013-08-07 09:19:00,69.1,67.8,30.04,ENE,70,1.0,5.0,96,0.00,,,0.00,meteohub,2013-08-07 13:19:00,
2013-08-07 09:24:00,69.6,68.4,30.04,East,98,0.0,5.0,96,0.00,,,0.00,meteohub,2013-08-07 13:24:00,
2013-08-07 09:29:00,70.0,68.2,30.04,ENE,66,1.0,4.0,94,0.00,,,0.00,meteohub,2013-08-07 13:29:00,
2013-08-07 09:34:00,70.2,68.0,30.04,ENE,69,1.0,3.0,93,0.00,,,0.00,meteohub,2013-08-07 13:34:00,
2013-08-07 09:39:00,70.0,67.5,30.04,North,349,1.0,3.0,92,0.00,,,0.00,meteohub,2013-08-07 13:39:00,
2013-08-07 09:44:00,70.3,68.2,30.04,ESE,103,0.0,4.0,93,0.00,,,0.00,meteohub,2013-08-07 13:44:00,
2013-08-07 09:49:00,70.5,68.4,30.04,WNW,294,0.0,4.0,93,0.00,,,0.00,meteohub,2013-08-07 13:49:00,
2013-08-07 09:54:00,70.5,68.0,30.04,North,359,0.0,4.0,92,0.00,,,0.00,meteohub,2013-08-07 13:54:00,
2013-08-07 09:59:00,70.3,67.8,30.04,East,85,1.0,4.0,92,0.00,,,0.00,meteohub,2013-08-07 13:59:00,
2013-08-07 10:04:00,70.3,67.8,30.04,ENE,64,2.0,5.0,92,0.00,,,0.00,meteohub,2013-08-07 14:04:00,
2013-08-07 10:09:00,70.3,67.8,30.04,SE,127,1.0,5.0,92,0.00,,,0.00,meteohub,2013-08-07 14:09:00,
2013-08-07 10:14:00,70.3,67.6,30.04,SSW,200,1.0,5.0,91,0.00,,,0.00,meteohub,2013-08-07 14:14:00,
2013-08-07 10:19:00,70.7,68.2,30.04,South,179,0.0,5.0,92,0.00,,,0.00,meteohub,2013-08-07 14:19:00,
2013-08-07 10:24:00,71.1,68.5,30.04,WNW,285,0.0,5.0,92,0.00,,,0.00,meteohub,2013-08-07 14:24:00,
2013-08-07 10:29:00,71.2,68.5,30.04,SSE,152,3.0,5.0,91,0.00,,,0.00,meteohub,2013-08-07 14:29:00,
2013-08-07 10:34:00,71.2,68.2,30.04,SE,135,3.0,5.0,90,0.00,,,0.00,meteohub,2013-08-07 14:34:00,
2013-08-07 10:40:00,71.4,68.0,30.04,ENE,73,2.0,6.0,89,0.00,,,0.00,meteohub,2013-08-07 14:40:00,
2013-08-07 10:45:00,71.4,67.6,30.04,SSE,153,1.0,6.0,88,0.00,,,0.00,meteohub,2013-08-07 14:45:00,
2013-08-07 10:50:00,71.4,67.6,30.04,WNW,291,0.0,8.0,88,0.00,,,0.00,meteohub,2013-08-07 14:50:00,
2013-08-07 10:55:00,71.8,67.6,30.04,SW,235,4.0,8.0,87,0.00,,,0.00,meteohub,2013-08-07 14:55:00,
2013-08-07 11:00:00,72.0,67.8,30.04,ENE,57,2.0,6.0,87,0.00,,,0.00,meteohub,2013-08-07 15:00:00,
2013-08-07 11:05:00,72.1,68.0,30.04,ENE,61,4.0,6.0,87,0.00,,,0.00,meteohub,2013-08-07 15:05:00,
2013-08-07 11:10:00,72.7,68.9,30.03,SE,137,1.0,5.0,88,0.00,,,0.00,meteohub,2013-08-07 15:10:00,
2013-08-07 11:15:00,73.0,68.9,30.03,SSE,149,4.0,5.0,87,0.00,,,0.00,meteohub,2013-08-07 15:15:00,
2013-08-07 11:20:00,73.2,68.4,30.04,East,86,1.0,5.0,85,0.00,,,0.00,meteohub,2013-08-07 15:20:00,
2013-08-07 11:25:00,73.6,68.7,30.03,ENE,69,3.0,5.0,85,0.00,,,0.00,meteohub,2013-08-07 15:25:00,
2013-08-07 11:30:00,73.6,68.7,30.03,SE,134,2.0,6.0,85,0.00,,,0.00,meteohub,2013-08-07 15:30:00,
2013-08-07 11:35:00,73.8,68.9,30.03,East,100,3.0,6.0,85,0.00,,,0.00,meteohub,2013-08-07 15:35:00,
2013-08-07 11:40:00,73.8,68.5,30.03,NE,49,2.0,8.0,84,0.00,,,0.00,meteohub,2013-08-07 15:40:00,
2013-08-07 11:45:00,73.9,68.7,30.03,ESE,120,1.0,8.0,84,0.00,,,0.00,meteohub,2013-08-07 15:45:00,
2013-08-07 11:50:00,74.3,69.1,30.03,NE,41,5.0,7.0,84,0.00,,,0.00,meteohub,2013-08-07 15:50:00,
2013-08-07 11:56:00,74.5,68.5,30.03,East,101,5.0,7.0,82,0.00,,,0.00,meteohub,2013-08-07 15:56:00,
2013-08-07 12:01:00,74.8,69.6,30.03,WNW,292,0.0,12.0,84,0.00,,,0.00,meteohub,2013-08-07 16:01:00,
2013-08-07 12:06:00,75.0,69.1,30.03,NNE,17,0.0,12.0,82,0.00,,,0.00,meteohub,2013-08-07 16:06:00,
2013-08-07 12:11:00,75.4,69.1,30.03,ENE,66,2.0,12.0,81,0.00,,,0.00,meteohub,2013-08-07 16:11:00,
2013-08-07 12:16:00,74.8,68.5,30.03,East,101,5.0,8.0,81,0.00,,,0.00,meteohub,2013-08-07 16:16:00,
2013-08-07 12:21:00,74.8,68.5,30.03,NE,49,8.0,8.0,81,0.00,,,0.00,meteohub,2013-08-07 16:21:00,
2013-08-07 12:26:00,75.4,69.8,30.03,WSW,252,0.0,11.0,83,0.00,,,0.00,meteohub,2013-08-07 16:26:00,
2013-08-07 12:31:00,76.3,69.6,30.03,East,91,1.0,11.0,80,0.00,,,0.00,meteohub,2013-08-07 16:31:00,
2013-08-07 12:36:00,76.6,69.6,30.03,SW,233,1.0,11.0,79,0.00,,,0.00,meteohub,2013-08-07 16:36:00,
2013-08-07 12:41:00,76.3,68.9,30.03,NW,305,2.0,6.0,78,0.00,,,0.00,meteohub,2013-08-07 16:41:00,
2013-08-07 12:46:00,75.7,68.7,30.03,SW,236,2.0,6.0,79,0.00,,,0.00,meteohub,2013-08-07 16:46:00,
2013-08-07 12:51:00,75.4,68.7,30.03,South,183,2.0,6.0,80,0.00,,,0.00,meteohub,2013-08-07 16:51:00,
2013-08-07 12:56:00,75.0,68.4,30.03,SE,124,0.0,4.0,80,0.00,,,0.00,meteohub,2013-08-07 16:56:00,
2013-08-07 13:01:00,75.6,69.6,30.02,ENE,64,1.0,4.0,82,0.00,,,0.00,meteohub,2013-08-07 17:01:00,
2013-08-07 13:06:00,76.6,70.0,30.02,WSW,239,1.0,3.0,80,0.00,,,0.00,meteohub,2013-08-07 17:06:00,
2013-08-07 13:12:00,76.8,69.4,30.02,East,87,4.0,8.0,78,0.00,,,0.00,meteohub,2013-08-07 17:12:00,
2013-08-07 13:17:00,76.5,69.8,30.01,SE,127,2.0,8.0,80,0.00,,,0.00,meteohub,2013-08-07 17:17:00,
2013-08-07 13:22:00,76.1,69.1,30.01,NNE,17,2.0,9.0,79,0.00,,,0.00,meteohub,2013-08-07 17:22:00,
2013-08-07 13:27:00,75.7,69.1,30.02,NNW,345,1.0,9.0,80,0.00,,,0.00,meteohub,2013-08-07 17:27:00,
2013-08-07 13:32:00,75.4,68.7,30.02,SE,127,3.0,9.0,80,0.00,,,0.00,meteohub,2013-08-07 17:32:00,
2013-08-07 13:37:00,75.4,69.1,30.01,South,179,1.0,7.0,81,0.00,,,0.00,meteohub,2013-08-07 17:37:00,
2013-08-07 13:42:00,75.4,69.4,30.01,WSW,238,2.0,7.0,82,0.00,,,0.00,meteohub,2013-08-07 17:42:00,
2013-08-07 13:47:00,75.2,68.9,30.01,NE,54,0.0,6.0,81,0.00,,,0.00,meteohub,2013-08-07 17:47:00,
2013-08-07 13:52:00,75.0,69.1,30.01,ENE,75,0.0,6.0,82,0.00,,,0.00,meteohub,2013-08-07 17:52:00,
2013-08-07 13:57:00,74.8,68.9,30.01,East,91,1.0,5.0,82,0.00,,,0.00,meteohub,2013-08-07 17:57:00,
2013-08-07 14:02:00,74.7,68.7,30.01,SE,143,1.0,5.0,82,0.00,,,0.00,meteohub,2013-08-07 18:02:00,
2013-08-07 14:07:00,74.7,69.1,30.01,ENE,71,0.0,5.0,83,0.00,,,0.00,meteohub,2013-08-07 18:07:00,
2013-08-07 14:12:00,74.7,69.1,30.01,ENE,71,1.0,5.0,83,0.00,,,0.00,meteohub,2013-08-07 18:12:00,
2013-08-07 14:17:00,74.8,69.3,30.01,East,88,2.0,3.0,83,0.00,,,0.00,meteohub,2013-08-07 18:17:00,
2013-08-07 14:22:00,75.2,69.3,30.01,WSW,249,0.0,4.0,82,0.00,,,0.00,meteohub,2013-08-07 18:22:00,
2013-08-07 14:27:00,75.6,69.3,30.01,South,180,0.0,4.0,81,0.00,,,0.00,meteohub,2013-08-07 18:27:00,
2013-08-07 14:32:00,75.7,69.4,30.01,SE,136,0.0,7.0,81,0.00,,,0.00,meteohub,2013-08-07 18:32:00,
2013-08-07 14:37:00,75.9,69.3,30.01,ENE,60,2.0,7.0,80,0.00,,,0.00,meteohub,2013-08-07 18:37:00,
2013-08-07 14:42:00,75.9,69.3,30.01,East,79,2.0,7.0,80,0.00,,,0.00,meteohub,2013-08-07 18:42:00,
2013-08-07 14:47:00,76.3,69.3,30.01,SE,135,2.0,7.0,79,0.00,,,0.00,meteohub,2013-08-07 18:47:00,
2013-08-07 14:52:00,76.5,69.4,30.01,SE,140,0.0,5.0,79,0.00,,,0.00,meteohub,2013-08-07 18:52:00,
2013-08-07 14:57:00,76.5,69.8,30.01,SW,219,2.0,4.0,80,0.00,,,0.00,meteohub,2013-08-07 18:57:00,
2013-08-07 15:02:00,75.9,68.9,30.01,NNE,23,1.0,5.0,79,0.00,,,0.00,meteohub,2013-08-07 19:02:00,
2013-08-07 15:07:00,75.6,68.9,30.00,NE,43,2.0,6.0,80,0.00,,,0.00,meteohub,2013-08-07 19:07:00,
2013-08-07 15:12:00,75.0,68.7,30.01,SE,125,1.0,9.0,81,0.00,,,0.00,meteohub,2013-08-07 19:12:00,
2013-08-07 15:17:00,74.7,68.7,30.01,West,276,0.0,9.0,82,0.00,,,0.00,meteohub,2013-08-07 19:17:00,
2013-08-07 15:22:00,74.5,68.9,30.00,NW,319,0.0,7.0,83,0.00,,,0.00,meteohub,2013-08-07 19:22:00,
2013-08-07 15:27:00,74.3,68.7,30.00,North,6,0.0,7.0,83,0.00,,,0.00,meteohub,2013-08-07 19:27:00,
2013-08-07 15:32:00,74.5,69.3,30.00,West,279,2.0,5.0,84,0.00,,,0.00,meteohub,2013-08-07 19:32:00,
2013-08-07 15:37:00,74.3,69.1,30.00,NE,37,1.0,5.0,84,0.00,,,0.00,meteohub,2013-08-07 19:37:00,
2013-08-07 15:42:00,74.1,68.9,30.00,NE,51,2.0,8.0,84,0.00,,,0.00,meteohub,2013-08-07 19:42:00,
2013-08-07 15:47:00,73.9,69.1,30.00,NNE,30,2.0,8.0,85,0.00,,,0.00,meteohub,2013-08-07 19:47:00,
2013-08-07 15:52:00,73.8,68.9,30.00,NE,49,1.0,8.0,85,0.00,,,0.00,meteohub,2013-08-07 19:52:00,
2013-08-07 15:57:00,73.6,69.1,30.00,SSE,152,2.0,8.0,86,0.00,,,0.00,meteohub,2013-08-07 19:57:00,
2013-08-07 16:02:00,73.6,69.1,30.00,West,262,1.0,6.0,86,0.00,,,0.00,meteohub,2013-08-07 20:02:00,
2013-08-07 16:07:00,73.8,69.6,29.99,East,98,1.0,6.0,87,0.00,,,0.00,meteohub,2013-08-07 20:07:00,
2013-08-07 16:12:00,74.1,70.7,29.99,WNW,290,2.0,7.0,89,0.00,,,0.00,meteohub,2013-08-07 20:12:00,
2013-08-07 16:17:00,74.3,69.8,29.99,NW,305,1.0,7.0,86,0.00,,,0.00,meteohub,2013-08-07 20:17:00,
2013-08-07 16:22:00,74.1,69.3,29.99,NW,307,3.0,7.0,85,0.00,,,0.00,meteohub,2013-08-07 20:22:00,
2013-08-07 16:27:00,74.1,69.6,29.99,NE,46,0.0,10.0,86,0.00,,,0.00,meteohub,2013-08-07 20:27:00,
2013-08-07 16:32:00,74.5,70.0,29.99,SSW,203,1.0,10.0,86,0.00,,,0.00,meteohub,2013-08-07 20:32:00,
2013-08-07 16:37:00,74.5,70.0,29.99,ESE,105,1.0,6.0,86,0.00,,,0.00,meteohub,2013-08-07 20:37:00,
2013-08-07 16:42:00,74.3,69.8,29.99,ESE,104,1.0,4.0,86,0.00,,,0.00,meteohub,2013-08-07 20:42:00,
2013-08-07 16:47:00,74.1,70.0,29.99,WNW,283,0.0,3.0,87,0.00,,,0.00,meteohub,2013-08-07 20:47:00,
2013-08-07 16:52:00,74.1,69.6,29.99,SE,133,1.0,3.0,86,0.00,,,0.00,meteohub,2013-08-07 20:52:00,
2013-08-07 16:57:00,73.8,69.6,29.99,East,97,0.0,6.0,87,0.00,,,0.00,meteohub,2013-08-07 20:57:00,
2013-08-07 17:02:00,73.8,70.0,29.98,ENE,70,1.0,6.0,88,0.00,,,0.00,meteohub,2013-08-07 21:02:00,
2013-08-07 17:07:00,73.9,69.8,29.99,NE,53,4.0,6.0,87,0.00,,,0.00,meteohub,2013-08-07 21:07:00,
2013-08-07 17:12:00,73.9,69.8,29.99,SE,127,1.0,6.0,87,0.00,,,0.00,meteohub,2013-08-07 21:12:00,
2013-08-07 17:17:00,73.9,69.8,29.98,East,80,1.0,6.0,87,0.00,,,0.00,meteohub,2013-08-07 21:17:00,
2013-08-07 17:22:00,73.9,69.8,29.99,WSW,249,0.0,6.0,87,0.00,,,0.00,meteohub,2013-08-07 21:22:00,
2013-08-07 17:27:00,74.1,70.0,29.98,SSW,193,1.0,4.0,87,0.00,,,0.00,meteohub,2013-08-07 21:27:00,
2013-08-07 17:32:00,73.9,69.8,29.98,East,84,0.0,6.0,87,0.00,,,0.00,meteohub,2013-08-07 21:32:00,
2013-08-07 17:37:00,73.8,69.6,29.98,ENE,61,1.0,6.0,87,0.00,,,0.00,meteohub,2013-08-07 21:37:00,
2013-08-07 17:42:00,73.8,69.6,29.98,SE,135,0.0,6.0,87,0.00,,,0.00,meteohub,2013-08-07 21:42:00,
2013-08-07 17:47:00,73.8,69.6,29.98,ESE,103,0.0,5.0,87,0.00,,,0.00,meteohub,2013-08-07 21:47:00,
2013-08-07 17:52:00,73.8,69.3,29.98,West,260,0.0,6.0,86,0.00,,,0.00,meteohub,2013-08-07 21:52:00,
2013-08-07 17:57:00,73.9,69.8,29.98,NNE,21,0.0,6.0,87,0.00,,,0.00,meteohub,2013-08-07 21:57:00,
2013-08-07 18:02:00,73.9,69.8,29.98,ENE,77,0.0,6.0,87,0.00,,,0.00,meteohub,2013-08-07 22:02:00,
2013-08-07 18:07:00,73.9,69.8,29.98,SE,125,2.0,5.0,87,0.00,,,0.00,meteohub,2013-08-07 22:07:00,
2013-08-07 18:12:00,73.8,69.6,29.98,East,89,2.0,4.0,87,0.00,,,0.00,meteohub,2013-08-07 22:12:00,
2013-08-07 18:17:00,73.8,69.6,29.98,East,92,0.0,5.0,87,0.00,,,0.00,meteohub,2013-08-07 22:17:00,
2013-08-07 18:22:00,73.6,69.8,29.98,ENE,60,2.0,5.0,88,0.00,,,0.00,meteohub,2013-08-07 22:22:00,
2013-08-07 18:27:00,73.4,69.6,29.98,NE,54,3.0,5.0,88,0.00,,,0.00,meteohub,2013-08-07 22:27:00,
2013-08-07 18:33:00,73.4,69.6,29.98,ENE,65,1.0,5.0,88,0.00,,,0.00,meteohub,2013-08-07 22:33:00,
2013-08-07 18:38:00,73.2,69.8,29.98,ENE,70,2.0,5.0,89,0.00,,,0.00,meteohub,2013-08-07 22:38:00,
2013-08-07 18:43:00,73.0,69.6,29.98,NE,41,1.0,5.0,89,0.00,,,0.00,meteohub,2013-08-07 22:43:00,
2013-08-07 18:48:00,73.0,69.6,29.97,ENE,70,1.0,4.0,89,0.00,,,0.00,meteohub,2013-08-07 22:48:00,
2013-08-07 18:53:00,72.9,69.4,29.97,ENE,70,1.0,4.0,89,0.00,,,0.00,meteohub,2013-08-07 22:53:00,
2013-08-07 18:58:00,72.9,69.4,29.97,East,79,0.0,7.0,89,0.00,,,0.00,meteohub,2013-08-07 22:58:00,
2013-08-07 19:03:00,72.7,69.6,29.97,SSE,153,1.0,7.0,90,0.00,,,0.00,meteohub,2013-08-07 23:03:00,
2013-08-07 19:08:00,72.7,69.6,29.97,ESE,114,2.0,6.0,90,0.00,,,0.00,meteohub,2013-08-07 23:08:00,
2013-08-07 19:13:00,72.7,69.6,29.97,NNE,15,0.0,6.0,90,0.00,,,0.00,meteohub,2013-08-07 23:13:00,
2013-08-07 19:18:00,72.7,69.6,29.97,East,100,0.0,4.0,90,0.00,,,0.00,meteohub,2013-08-07 23:18:00,
2013-08-07 19:23:00,72.5,69.4,29.98,East,100,1.0,4.0,90,0.00,,,0.00,meteohub,2013-08-07 23:23:00,
2013-08-07 19:28:00,72.3,69.3,29.98,ENE,75,0.0,5.0,90,0.00,,,0.00,meteohub,2013-08-07 23:28:00,
2013-08-07 19:33:00,72.3,69.3,29.98,East,79,1.0,5.0,90,0.00,,,0.00,meteohub,2013-08-07 23:33:00,
2013-08-07 19:38:00,72.3,69.3,29.97,NE,37,3.0,5.0,90,0.00,,,0.00,meteohub,2013-08-07 23:38:00,
2013-08-07 19:44:00,72.3,69.3,29.97,East,82,3.0,8.0,90,0.00,,,0.00,meteohub,2013-08-07 23:44:00,
2013-08-07 19:49:00,72.1,69.1,29.97,ESE,121,0.0,8.0,90,0.00,,,0.00,meteohub,2013-08-07 23:49:00,
2013-08-07 19:54:00,72.1,69.1,29.97,WNW,295,1.0,8.0,90,0.00,,,0.00,meteohub,2013-08-07 23:54:00,
2013-08-07 19:59:00,72.1,69.1,29.97,West,266,3.0,5.0,90,0.00,,,0.00,meteohub,2013-08-07 23:59:00,
2013-08-07 20:04:00,72.1,69.1,29.97,NNW,342,1.0,8.0,90,0.00,,,0.00,meteohub,2013-08-08 00:04:00,
2013-08-07 20:09:00,72.1,69.1,29.97,ENE,68,1.0,8.0,90,0.00,,,0.00,meteohub,2013-08-08 00:09:00,
2013-08-07 20:14:00,72.0,68.9,29.97,East,83,1.0,8.0,90,0.00,,,0.00,meteohub,2013-08-08 00:14:00,
2013-08-07 20:19:00,72.0,68.9,29.98,ENE,66,1.0,5.0,90,0.00,,,0.00,meteohub,2013-08-08 00:19:00,
2013-08-07 20:24:00,71.8,68.7,29.98,East,101,0.0,7.0,90,0.00,,,0.00,meteohub,2013-08-08 00:24:00,
2013-08-07 20:26:00,71.8,68.7,29.98,NE,46,0.0,7.0,90,0.00,,,0.00,meteohub,2013-08-08 00:26:00,
2013-08-07 20:31:00,71.8,69.1,29.97,SE,129,0.0,7.0,91,0.00,,,0.00,meteohub,2013-08-08 00:31:00,
2013-08-07 20:36:00,71.6,68.9,29.98,ESE,114,0.0,6.0,91,0.00,,,0.00,meteohub,2013-08-08 00:36:00,
2013-08-07 20:41:00,71.6,68.9,29.98,East,83,1.0,5.0,91,0.00,,,0.00,meteohub,2013-08-08 00:41:00,
2013-08-07 20:46:00,71.4,68.7,29.98,East,93,1.0,5.0,91,0.00,,,0.00,meteohub,2013-08-08 00:46:00,
2013-08-07 20:51:00,71.4,68.7,29.98,East,99,0.0,5.0,91,0.00,,,0.00,meteohub,2013-08-08 00:51:00,
2013-08-07 20:57:00,71.4,68.9,29.98,ENE,77,0.0,4.0,92,0.00,,,0.00,meteohub,2013-08-08 00:57:00,
2013-08-07 21:02:00,71.4,68.9,29.98,ENE,69,1.0,4.0,92,0.00,,,0.00,meteohub,2013-08-08 01:02:00,
2013-08-07 21:07:00,71.2,68.7,29.98,East,85,1.0,3.0,92,0.00,,,0.00,meteohub,2013-08-08 01:07:00,
2013-08-07 21:12:00,71.4,68.9,29.98,ENE,65,2.0,4.0,92,0.00,,,0.00,meteohub,2013-08-08 01:12:00,
2013-08-07 21:17:00,71.2,68.7,29.98,East,79,0.0,4.0,92,0.00,,,0.00,meteohub,2013-08-08 01:17:00,
2013-08-07 21:22:00,71.2,68.7,29.98,East,86,1.0,3.0,92,0.00,,,0.00,meteohub,2013-08-08 01:22:00,
2013-08-07 21:27:00,71.2,68.7,29.98,NE,53,1.0,3.0,92,0.00,,,0.00,meteohub,2013-08-08 01:27:00,
2013-08-07 21:32:00,71.2,69.1,29.98,ENE,60,1.0,4.0,93,0.00,,,0.00,meteohub,2013-08-08 01:32:00,
2013-08-07 21:37:00,71.2,69.1,29.99,WSW,253,1.0,4.0,93,0.00,,,0.00,meteohub,2013-08-08 01:37:00,
2013-08-07 21:42:00,71.2,69.1,29.99,NNW,329,0.0,3.0,93,0.00,,,0.00,meteohub,2013-08-08 01:42:00,
2013-08-07 21:47:00,71.2,69.1,29.99,NNW,329,0.0,2.0,93,0.00,,,0.00,meteohub,2013-08-08 01:47:00,
2013-08-07 21:52:00,71.2,69.1,29.99,NE,49,1.0,1.0,93,0.00,,,0.00,meteohub,2013-08-08 01:52:00,
2013-08-07 21:57:00,71.2,69.1,29.99,ESE,104,0.0,3.0,93,0.00,,,0.00,meteohub,2013-08-08 01:57:00,
2013-08-07 22:02:00,71.2,69.1,29.99,ENE,68,0.0,3.0,93,0.00,,,0.00,meteohub,2013-08-08 02:02:00,
2013-08-07 22:07:00,71.4,69.3,29.99,East,100,1.0,3.0,93,0.00,,,0.00,meteohub,2013-08-08 02:07:00,
2013-08-07 22:12:00,71.4,69.3,29.99,NE,53,0.0,3.0,93,0.00,,,0.00,meteohub,2013-08-08 02:12:00,
2013-08-07 22:17:00,71.4,69.3,29.98,ESE,117,0.0,3.0,93,0.00,,,0.00,meteohub,2013-08-08 02:17:00,
2013-08-07 22:22:00,71.4,69.3,29.99,WSW,250,0.0,2.0,93,0.00,,,0.00,meteohub,2013-08-08 02:22:00,
2013-08-07 22:27:00,71.4,69.3,29.99,NE,46,0.0,2.0,93,0.00,,,0.00,meteohub,2013-08-08 02:27:00,
2013-08-07 22:32:00,71.4,69.3,29.99,ENE,65,0.0,2.0,93,0.00,,,0.00,meteohub,2013-08-08 02:32:00,
2013-08-07 22:37:00,71.4,69.3,29.99,East,86,1.0,3.0,93,0.00,,,0.00,meteohub,2013-08-08 02:37:00,
2013-08-07 22:42:00,71.4,69.3,29.99,East,81,2.0,3.0,93,0.00,,,0.00,meteohub,2013-08-08 02:42:00,
2013-08-07 22:47:00,71.4,69.3,29.99,NW,304,0.0,3.0,93,0.00,,,0.00,meteohub,2013-08-08 02:47:00,
2013-08-07 22:52:00,71.4,69.6,29.99,ENE,75,1.0,3.0,94,0.00,,,0.00,meteohub,2013-08-08 02:52:00,
2013-08-07 22:57:00,71.2,69.4,29.99,NNW,339,0.0,3.0,94,0.00,,,0.00,meteohub,2013-08-08 02:57:00,
2013-08-07 23:02:00,71.2,69.4,29.98,SE,139,0.0,3.0,94,0.00,,,0.00,meteohub,2013-08-08 03:02:00,
2013-08-07 23:07:00,71.2,69.4,29.98,NE,46,4.0,4.0,94,0.00,,,0.00,meteohub,2013-08-08 03:07:00,
2013-08-07 23:12:00,71.2,69.4,29.98,ENE,73,2.0,7.0,94,0.00,,,0.00,meteohub,2013-08-08 03:12:00,
2013-08-07 23:17:00,71.2,69.4,29.98,ENE,67,0.0,7.0,94,0.00,,,0.00,meteohub,2013-08-08 03:17:00,
2013-08-07 23:22:00,71.1,69.3,29.98,NE,42,0.0,7.0,94,0.00,,,0.00,meteohub,2013-08-08 03:22:00,
2013-08-07 23:27:00,71.1,69.3,29.98,NNE,33,0.0,3.0,94,0.00,,,0.00,meteohub,2013-08-08 03:27:00,
2013-08-07 23:32:00,71.1,69.6,29.98,SSW,194,1.0,2.0,95,0.00,,,0.00,meteohub,2013-08-08 03:32:00,
2013-08-07 23:37:00,70.9,69.4,29.98,SSW,194,0.0,3.0,95,0.00,,,0.00,meteohub,2013-08-08 03:37:00,
2013-08-07 23:42:00,70.9,69.4,29.98,SSW,194,0.0,3.0,95,0.00,,,0.00,meteohub,2013-08-08 03:42:00,
2013-08-07 23:47:00,70.7,69.3,29.98,SSW,194,0.0,1.0,95,0.00,,,0.00,meteohub,2013-08-08 03:47:00,
2013-08-07 23:52:00,70.7,69.3,29.98,SSW,193,0.0,0.0,95,0.00,,,0.00,meteohub,2013-08-08 03:52:00,
2013-08-07 23:57:00,70.7,69.3,29.98,SSW,193,0.0,0.0,95,0.00,,,0.00,meteohub,2013-08-08 03:57:00,